createdAt,value
2018-09-15T00:01:47.518Z,17.40
2018-09-15T00:04:16.880Z,17.30
2018-09-15T00:06:46.145Z,17.30
2018-09-15T00:09:15.697Z,17.30
2018-09-15T00:11:44.984Z,17.40
2018-09-15T00:14:14.298Z,17.40
2018-09-15T00:16:44.869Z,17.40
2018-09-15T00:19:14.215Z,17.40
2018-09-15T00:21:43.527Z,17.40
2018-09-15T00:24:12.833Z,17.30
2018-09-15T00:26:43.015Z,17.40
2018-09-15T00:29:12.355Z,17.40
2018-09-15T00:31:41.645Z,17.50
2018-09-15T00:34:10.921Z,17.40
2018-09-15T00:36:40.244Z,17.40
2018-09-15T00:39:11.424Z,17.30
2018-09-15T00:41:40.942Z,17.30
2018-09-15T00:44:10.347Z,17.30
2018-09-15T00:46:39.643Z,17.20
2018-09-15T00:49:08.933Z,17.30
2018-09-15T00:51:38.281Z,17.10
2018-09-15T00:54:07.687Z,17.20
2018-09-15T00:56:36.973Z,17.30
2018-09-15T00:59:06.403Z,17.30
2018-09-15T01:01:35.746Z,17.20
2018-09-15T01:04:05.466Z,17.30
2018-09-15T01:06:34.766Z,17.30
2018-09-15T01:09:05.951Z,17.40
2018-09-15T01:11:35.259Z,17.30
2018-09-15T01:14:05.670Z,17.20
2018-09-15T01:16:34.987Z,17.20
2018-09-15T01:19:04.312Z,17.20
2018-09-15T01:21:33.675Z,17.10
2018-09-15T01:24:02.931Z,17.10
2018-09-15T01:26:32.302Z,17.10
2018-09-15T01:29:01.602Z,17.00
2018-09-15T01:31:30.875Z,16.90
2018-09-15T01:34:00.135Z,16.80
2018-09-15T01:36:29.476Z,16.90
2018-09-15T01:38:59.095Z,16.80
2018-09-15T01:41:28.429Z,16.70
2018-09-15T01:43:57.720Z,16.50
2018-09-15T01:46:27.092Z,16.70
2018-09-15T01:48:56.328Z,16.70
2018-09-15T01:51:25.579Z,16.70
2018-09-15T01:53:54.872Z,16.50
2018-09-15T01:56:24.190Z,16.60
2018-09-15T01:58:53.459Z,16.60
2018-09-15T02:01:22.819Z,16.60
2018-09-15T02:03:52.094Z,16.60
2018-09-15T02:06:21.362Z,16.50
2018-09-15T02:08:50.659Z,16.60
2018-09-15T02:11:19.943Z,16.60
2018-09-15T02:13:49.328Z,16.40
2018-09-15T02:16:18.697Z,16.60
2018-09-15T02:18:47.966Z,16.50
2018-09-15T02:21:17.188Z,16.50
2018-09-15T02:23:46.421Z,16.40
2018-09-15T02:26:15.741Z,16.30
2018-09-15T02:28:45.098Z,16.50
2018-09-15T02:31:14.392Z,16.40
2018-09-15T02:33:43.684Z,16.40
2018-09-15T02:36:13.010Z,16.10
2018-09-15T02:38:42.346Z,16.30
2018-09-15T02:41:11.640Z,16.20
2018-09-15T02:43:41.065Z,16.30
2018-09-15T02:46:10.390Z,16.20
2018-09-15T02:48:39.647Z,16.30
2018-09-15T02:51:09.026Z,16.40
2018-09-15T02:53:38.437Z,16.20
2018-09-15T02:56:07.775Z,16.10
2018-09-15T02:58:37.382Z,16.20
2018-09-15T03:01:06.767Z,16.20
2018-09-15T03:03:36.042Z,16.10
2018-09-15T03:06:05.298Z,16.20
2018-09-15T03:08:34.604Z,16.10
2018-09-15T03:11:03.955Z,16.00
2018-09-15T03:13:33.319Z,16.00
2018-09-15T03:16:02.584Z,16.10
2018-09-15T03:18:31.852Z,16.00
2018-09-15T03:21:01.172Z,15.90
2018-09-15T03:23:30.474Z,16.00
2018-09-15T03:25:59.856Z,16.00
2018-09-15T03:28:29.148Z,16.00
2018-09-15T03:30:58.745Z,16.00
2018-09-15T03:33:28.031Z,15.90
2018-09-15T03:35:58.253Z,15.80
2018-09-15T03:38:27.548Z,16.00
2018-09-15T03:40:56.898Z,15.90
2018-09-15T03:43:26.148Z,15.70
2018-09-15T03:45:55.482Z,15.80
2018-09-15T03:48:24.776Z,15.60
2018-09-15T03:50:54.091Z,15.60
2018-09-15T03:53:23.359Z,15.80
2018-09-15T03:55:52.672Z,15.90
2018-09-15T03:58:21.879Z,15.80
2018-09-15T04:00:52.964Z,15.80
2018-09-15T04:03:23.163Z,15.80
2018-09-15T04:05:52.700Z,16.00
2018-09-15T04:08:22.168Z,15.80
2018-09-15T04:10:51.439Z,15.90
2018-09-15T04:13:20.699Z,15.80
2018-09-15T04:15:50.404Z,15.70
2018-09-15T04:18:19.624Z,15.60
2018-09-15T04:20:49.285Z,15.70
2018-09-15T04:23:18.572Z,15.80
2018-09-15T04:25:47.887Z,15.80
2018-09-15T04:28:17.221Z,15.60
2018-09-15T04:30:46.572Z,15.70
2018-09-15T04:33:16.102Z,15.60
2018-09-15T04:35:45.342Z,15.40
2018-09-15T04:38:14.595Z,15.60
2018-09-15T04:40:43.990Z,15.70
2018-09-15T04:43:13.252Z,15.60
2018-09-15T04:45:42.510Z,15.70
2018-09-15T04:48:11.831Z,15.50
2018-09-15T04:50:41.074Z,15.60
2018-09-15T04:53:10.370Z,15.70
2018-09-15T04:55:39.696Z,15.60
2018-09-15T04:58:09.008Z,15.30
2018-09-15T05:00:38.363Z,15.30
2018-09-15T05:03:07.712Z,15.40
2018-09-15T05:05:37.056Z,15.40
2018-09-15T05:08:06.564Z,15.40
2018-09-15T05:10:35.904Z,15.60
2018-09-15T05:13:05.263Z,15.60
2018-09-15T05:15:34.574Z,15.30
2018-09-15T05:18:03.764Z,15.40
2018-09-15T05:20:33.054Z,15.50
2018-09-15T05:23:02.369Z,15.70
2018-09-15T05:25:31.647Z,15.60
2018-09-15T05:28:00.952Z,15.70
2018-09-15T05:30:30.194Z,15.60
2018-09-15T05:32:59.466Z,15.30
2018-09-15T05:35:28.754Z,15.60
2018-09-15T05:37:59.199Z,15.30
2018-09-15T05:40:28.438Z,15.50
2018-09-15T05:42:57.799Z,15.60
2018-09-15T05:45:27.124Z,15.30
2018-09-15T05:47:56.359Z,15.60
2018-09-15T05:50:25.635Z,15.60
2018-09-15T05:52:54.911Z,15.40
2018-09-15T05:55:24.230Z,15.60
2018-09-15T05:57:53.509Z,15.50
2018-09-15T06:00:22.873Z,15.70
2018-09-15T06:02:52.219Z,15.80
2018-09-15T06:05:21.511Z,15.60
2018-09-15T06:07:50.924Z,15.90
2018-09-15T06:10:20.105Z,15.90
2018-09-15T06:12:49.522Z,15.90
2018-09-15T06:15:18.802Z,16.10
2018-09-15T06:17:48.092Z,16.20
2018-09-15T06:20:17.363Z,15.90
2018-09-15T06:22:48.608Z,16.10
2018-09-15T06:25:17.966Z,16.20
2018-09-15T06:27:47.313Z,16.10
2018-09-15T06:30:16.643Z,16.00
2018-09-15T06:32:45.967Z,16.00
2018-09-15T06:35:15.263Z,15.90
2018-09-15T06:37:44.503Z,15.80
2018-09-15T06:40:13.804Z,15.80
2018-09-15T06:42:43.102Z,15.80
2018-09-15T06:45:12.408Z,15.60
2018-09-15T06:47:41.651Z,15.80
2018-09-15T06:50:10.907Z,15.90
2018-09-15T06:52:40.241Z,16.00
2018-09-15T06:55:09.524Z,16.10
2018-09-15T06:57:38.814Z,16.30
2018-09-15T07:00:08.128Z,16.00
2018-09-15T07:02:37.460Z,16.20
2018-09-15T07:05:06.918Z,16.30
2018-09-15T07:07:41.630Z,16.50
2018-09-15T07:10:10.555Z,16.60
2018-09-15T07:12:39.853Z,16.40
2018-09-15T07:15:09.307Z,16.40
2018-09-15T07:17:38.690Z,16.50
2018-09-15T07:20:08.079Z,16.60
2018-09-15T07:22:37.389Z,16.50
2018-09-15T07:25:06.772Z,16.50
2018-09-15T07:27:36.058Z,16.60
2018-09-15T07:30:05.481Z,16.60
2018-09-15T07:32:34.781Z,16.90
2018-09-15T07:35:04.131Z,17.10
2018-09-15T07:37:34.482Z,17.30
2018-09-15T07:40:03.791Z,17.00
2018-09-15T07:42:33.092Z,17.20
2018-09-15T07:45:03.379Z,17.30
2018-09-15T07:47:32.911Z,17.30
2018-09-15T07:50:02.193Z,17.50
2018-09-15T07:52:35.486Z,17.90
2018-09-15T07:55:04.796Z,17.90
2018-09-15T07:57:34.140Z,18.20
2018-09-15T08:00:03.382Z,18.20
2018-09-15T08:02:32.699Z,18.10
2018-09-15T08:05:02.048Z,18.20
2018-09-15T08:07:40.991Z,18.00
2018-09-15T08:10:10.406Z,18.20
2018-09-15T08:12:39.764Z,18.10
2018-09-15T08:15:09.099Z,18.20
2018-09-15T08:17:38.395Z,18.40
2018-09-15T08:20:07.687Z,18.50
2018-09-15T08:22:37.017Z,18.30
2018-09-15T08:25:06.719Z,18.30
2018-09-15T08:27:35.971Z,18.20
2018-09-15T08:30:06.320Z,18.20
2018-09-15T08:32:35.568Z,18.50
2018-09-15T08:35:06.058Z,18.00
2018-09-15T08:37:35.427Z,18.40
2018-09-15T08:40:04.748Z,18.70
2018-09-15T08:42:34.033Z,18.90
2018-09-15T08:45:03.315Z,19.00
2018-09-15T08:47:34.580Z,19.10
2018-09-15T08:50:06.174Z,19.30
2018-09-15T08:52:35.545Z,19.20
2018-09-15T08:55:05.002Z,18.80
2018-09-15T08:57:34.256Z,19.00
2018-09-15T09:00:03.600Z,19.00
2018-09-15T09:02:34.976Z,19.40
2018-09-15T09:05:04.205Z,18.80
2018-09-15T09:07:33.471Z,19.20
2018-09-15T09:10:02.748Z,19.50
2018-09-15T09:12:32.057Z,19.70
2018-09-15T09:15:01.418Z,19.80
2018-09-15T09:17:31.707Z,19.60
2018-09-15T09:20:01.065Z,19.60
2018-09-15T09:22:30.380Z,20.30
2018-09-15T09:25:00.719Z,20.70
2018-09-15T09:27:30.103Z,20.90
2018-09-15T09:29:59.405Z,21.10
2018-09-15T09:32:29.695Z,20.90
2018-09-15T09:34:58.966Z,21.00
2018-09-15T09:37:28.318Z,20.80
2018-09-15T09:39:57.523Z,20.60
2018-09-15T09:42:26.939Z,20.40
2018-09-15T09:44:56.151Z,20.40
2018-09-15T09:47:25.371Z,20.50
2018-09-15T09:49:54.699Z,20.30
2018-09-15T09:52:23.934Z,20.30
2018-09-15T09:54:53.155Z,20.30
2018-09-15T09:57:22.371Z,20.30
2018-09-15T09:59:51.602Z,20.20
2018-09-15T10:02:23.525Z,20.30
2018-09-15T10:04:53.591Z,20.20
2018-09-15T10:07:22.874Z,20.10
2018-09-15T10:09:52.507Z,20.20
2018-09-15T10:12:21.678Z,20.20
2018-09-15T10:14:50.908Z,20.70
2018-09-15T10:17:20.164Z,21.10
2018-09-15T10:19:49.398Z,20.80
2018-09-15T10:22:18.691Z,21.00
2018-09-15T10:24:47.892Z,21.10
2018-09-15T10:27:17.224Z,20.60
2018-09-15T10:29:46.462Z,20.70
2018-09-15T10:32:15.697Z,20.80
2018-09-15T10:34:44.911Z,20.50
2018-09-15T10:37:14.127Z,20.50
2018-09-15T10:39:43.458Z,20.70
2018-09-15T10:42:12.702Z,20.70
2018-09-15T10:44:41.979Z,20.90
2018-09-15T10:47:11.346Z,20.50
2018-09-15T10:49:40.707Z,20.10
2018-09-15T10:52:09.926Z,20.30
2018-09-15T10:54:39.134Z,20.10
2018-09-15T10:57:08.687Z,20.20
2018-09-15T10:59:38.222Z,20.40
2018-09-15T11:02:11.676Z,20.50
2018-09-15T11:04:41.524Z,20.90
2018-09-15T11:07:10.819Z,20.80
2018-09-15T11:09:40.082Z,20.70
2018-09-15T11:12:09.698Z,21.40
2018-09-15T11:14:38.967Z,21.50
2018-09-15T11:17:08.612Z,21.90
2018-09-15T11:19:37.782Z,22.30
2018-09-15T11:22:07.210Z,22.40
2018-09-15T11:24:36.424Z,22.30
2018-09-15T11:27:06.054Z,22.80
2018-09-15T11:29:35.256Z,22.00
2018-09-15T11:32:04.929Z,22.00
2018-09-15T11:34:34.203Z,21.90
2018-09-15T11:37:03.521Z,21.90
2018-09-15T11:39:34.158Z,21.90
2018-09-15T11:42:03.526Z,21.80
2018-09-15T11:44:32.787Z,21.80
2018-09-15T11:47:02.028Z,21.60
2018-09-15T11:49:31.327Z,21.40
2018-09-15T11:52:00.663Z,21.50
2018-09-15T11:54:29.983Z,21.40
2018-09-15T11:56:59.383Z,21.30
2018-09-15T11:59:28.720Z,21.40
2018-09-15T12:01:58.114Z,21.20
2018-09-15T12:04:27.339Z,21.20
2018-09-15T12:06:56.650Z,21.10
2018-09-15T12:09:26.049Z,21.20
2018-09-15T12:11:55.383Z,21.50
2018-09-15T12:14:24.642Z,21.30
2018-09-15T12:16:53.999Z,21.10
2018-09-15T12:19:23.372Z,21.30
2018-09-15T12:21:52.856Z,20.90
2018-09-15T12:24:24.118Z,21.00
2018-09-15T12:26:53.410Z,21.10
2018-09-15T12:29:22.778Z,21.00
2018-09-15T12:31:52.330Z,21.20
2018-09-15T12:34:21.685Z,21.10
2018-09-15T12:36:50.988Z,21.30
2018-09-15T12:39:20.303Z,21.10
2018-09-15T12:41:49.648Z,21.40
2018-09-15T12:44:19.220Z,21.10
2018-09-15T12:46:48.638Z,21.30
2018-09-15T12:49:17.860Z,21.50
2018-09-15T12:51:51.267Z,21.70
2018-09-15T12:54:20.545Z,21.90
2018-09-15T12:56:49.817Z,21.90
2018-09-15T12:59:19.081Z,22.20
2018-09-15T13:01:48.359Z,21.90
2018-09-15T13:04:17.729Z,21.80
2018-09-15T13:06:46.949Z,22.10
2018-09-15T13:09:16.211Z,21.70
2018-09-15T13:11:45.475Z,21.70
2018-09-15T13:14:14.839Z,21.70
2018-09-15T13:16:44.407Z,21.30
2018-09-15T13:19:13.741Z,21.60
2018-09-15T13:21:43.010Z,21.40
2018-09-15T13:24:12.322Z,21.80
2018-09-15T13:26:41.631Z,21.60
2018-09-15T13:29:10.983Z,21.60
2018-09-15T13:31:40.275Z,21.50
2018-09-15T13:34:09.617Z,22.00
2018-09-15T13:36:38.932Z,22.20
2018-09-15T13:39:10.486Z,22.00
2018-09-15T13:41:39.846Z,21.60
2018-09-15T13:44:09.448Z,21.80
2018-09-15T13:46:38.821Z,21.70
2018-09-15T13:49:08.215Z,21.60
2018-09-15T13:51:37.480Z,21.70
2018-09-15T13:54:06.851Z,22.10
2018-09-15T13:56:42.827Z,22.20
2018-09-15T13:59:12.079Z,22.40
2018-09-15T14:01:41.458Z,22.40
2018-09-15T14:04:10.776Z,22.20
2018-09-15T14:06:40.149Z,22.20
2018-09-15T14:09:11.749Z,21.60
2018-09-15T14:11:41.119Z,21.60
2018-09-15T14:14:10.519Z,21.30
2018-09-15T14:16:40.041Z,21.50
2018-09-15T14:19:10.367Z,21.90
2018-09-15T14:21:39.633Z,21.70
2018-09-15T14:24:08.865Z,22.20
2018-09-15T14:26:38.166Z,22.10
2018-09-15T14:29:08.576Z,22.30
2018-09-15T14:31:37.914Z,22.00
2018-09-15T14:34:07.349Z,21.90
2018-09-15T14:36:36.631Z,22.20
2018-09-15T14:39:09.881Z,22.30
2018-09-15T14:41:39.217Z,22.40
2018-09-15T14:44:08.588Z,22.30
2018-09-15T14:46:41.481Z,22.40
2018-09-15T14:49:10.759Z,22.50
2018-09-15T14:51:40.139Z,22.50
2018-09-15T14:54:09.415Z,22.50
2018-09-15T14:56:38.715Z,22.20
2018-09-15T14:59:08.035Z,22.20
2018-09-15T15:01:37.368Z,22.20
2018-09-15T15:04:06.782Z,21.80
2018-09-15T15:06:36.083Z,21.90
2018-09-15T15:09:07.519Z,21.50
2018-09-15T15:11:36.932Z,21.80
2018-09-15T15:14:06.435Z,21.70
2018-09-15T15:16:40.903Z,21.20
2018-09-15T15:19:10.513Z,21.10
2018-09-15T15:21:39.845Z,21.20
2018-09-15T15:24:09.187Z,21.10
2018-09-15T15:26:38.875Z,21.00
2018-09-15T15:29:09.404Z,21.00
2018-09-15T15:31:38.653Z,20.90
2018-09-15T15:34:11.464Z,21.10
2018-09-15T15:36:41.078Z,21.10
2018-09-15T15:39:10.405Z,21.20
2018-09-15T15:41:39.655Z,21.30
2018-09-15T15:44:08.871Z,21.20
2018-09-15T15:46:38.199Z,21.30
2018-09-15T15:49:07.515Z,21.20
2018-09-15T15:51:36.897Z,21.10
2018-09-15T15:54:06.144Z,21.00
2018-09-15T15:56:35.479Z,21.10
2018-09-15T15:59:04.811Z,20.90
2018-09-15T16:01:34.104Z,21.10
2018-09-15T16:04:03.302Z,21.20
2018-09-15T16:06:32.604Z,21.10
2018-09-15T16:09:01.864Z,21.00
2018-09-15T16:11:31.149Z,21.10
2018-09-15T16:14:00.443Z,21.40
2018-09-15T16:16:29.748Z,21.50
2018-09-15T16:19:00.083Z,21.50
2018-09-15T16:21:29.664Z,21.40
2018-09-15T16:23:58.935Z,21.50
2018-09-15T16:26:28.223Z,21.50
2018-09-15T16:28:57.468Z,21.50
2018-09-15T16:31:26.671Z,21.50
2018-09-15T16:33:55.965Z,21.50
2018-09-15T16:36:25.217Z,21.50
2018-09-15T16:38:54.536Z,21.50
2018-09-15T16:41:23.831Z,21.30
2018-09-15T16:43:53.072Z,21.30
2018-09-15T16:46:22.315Z,21.40
2018-09-15T16:48:51.558Z,21.20
2018-09-15T16:51:20.791Z,21.30
2018-09-15T16:53:50.140Z,21.30
2018-09-15T16:56:19.660Z,21.10
2018-09-15T16:58:49.123Z,21.20
2018-09-15T17:01:18.426Z,21.30
2018-09-15T17:03:48.616Z,21.30
2018-09-15T17:06:17.945Z,21.30
2018-09-15T17:08:47.159Z,21.20
2018-09-15T17:11:16.392Z,21.20
2018-09-15T17:13:45.608Z,21.10
2018-09-15T17:16:14.873Z,21.00
2018-09-15T17:18:44.474Z,21.10
2018-09-15T17:21:13.720Z,21.20
2018-09-15T17:23:43.013Z,21.30
2018-09-15T17:26:12.320Z,21.30
2018-09-15T17:28:41.663Z,21.30
2018-09-15T17:31:10.994Z,21.20
2018-09-15T17:33:40.161Z,21.20
2018-09-15T17:36:09.430Z,21.10
2018-09-15T17:38:38.696Z,21.10
2018-09-15T17:41:07.959Z,21.00
2018-09-15T17:43:37.194Z,21.00
2018-09-15T17:46:06.542Z,20.90
2018-09-15T17:48:35.846Z,20.80
2018-09-15T17:51:05.136Z,20.70
2018-09-15T17:53:34.423Z,20.70
2018-09-15T17:56:03.713Z,20.70
2018-09-15T17:58:33.034Z,20.50
2018-09-15T18:01:02.330Z,20.30
2018-09-15T18:03:31.660Z,20.20
2018-09-15T18:06:00.916Z,20.30
2018-09-15T18:08:30.225Z,20.30
2018-09-15T18:10:59.490Z,20.30
2018-09-15T18:13:28.831Z,20.20
2018-09-15T18:15:58.141Z,20.20
2018-09-15T18:18:27.328Z,20.20
2018-09-15T18:20:56.615Z,20.10
2018-09-15T18:23:25.928Z,20.00
2018-09-15T18:25:55.248Z,19.90
2018-09-15T18:28:24.431Z,19.90
2018-09-15T18:30:53.704Z,19.60
2018-09-15T18:33:22.978Z,19.50
2018-09-15T18:35:52.455Z,19.50
2018-09-15T18:38:21.566Z,19.60
2018-09-15T18:40:50.970Z,19.60
2018-09-15T18:43:20.192Z,19.60
2018-09-15T18:45:49.441Z,19.50
2018-09-15T18:48:18.730Z,19.50
2018-09-15T18:50:48.064Z,19.60
2018-09-15T18:53:17.266Z,19.80
2018-09-15T18:55:46.562Z,19.80
2018-09-15T18:58:15.860Z,19.70
2018-09-15T19:00:45.253Z,19.80
2018-09-15T19:03:15.620Z,19.90
2018-09-15T19:05:46.067Z,19.80
2018-09-15T19:08:15.443Z,19.80
2018-09-15T19:10:44.804Z,19.90
2018-09-15T19:13:14.064Z,20.00
2018-09-15T19:15:43.395Z,20.00
2018-09-15T19:18:12.693Z,19.90
2018-09-15T19:20:41.963Z,20.00
2018-09-15T19:23:11.208Z,19.90
2018-09-15T19:25:40.436Z,19.90
2018-09-15T19:28:09.734Z,19.80
2018-09-15T19:30:38.996Z,19.80
2018-09-15T19:33:08.299Z,19.80
2018-09-15T19:35:37.499Z,19.80
2018-09-15T19:38:06.846Z,19.80
2018-09-15T19:40:36.401Z,19.80
2018-09-15T19:43:05.690Z,19.90
2018-09-15T19:45:35.033Z,19.80
2018-09-15T19:48:04.266Z,19.90
2018-09-15T19:50:33.542Z,19.90
2018-09-15T19:53:02.868Z,19.90
2018-09-15T19:55:32.195Z,19.90
2018-09-15T19:58:01.520Z,19.90
2018-09-15T20:00:30.807Z,19.80
2018-09-15T20:03:00.076Z,19.70
2018-09-15T20:05:29.421Z,19.70
2018-09-15T20:08:04.939Z,19.70
2018-09-15T20:10:34.178Z,19.50
2018-09-15T20:13:05.609Z,19.40
2018-09-15T20:15:33.167Z,19.40
2018-09-15T20:18:00.821Z,19.30
2018-09-15T20:20:28.479Z,19.30
2018-09-15T20:22:57.787Z,19.30
2018-09-15T20:25:27.068Z,19.20
2018-09-15T20:27:56.378Z,19.20
2018-09-15T20:30:25.622Z,19.20
2018-09-15T20:32:54.922Z,19.10
2018-09-15T20:35:24.141Z,19.00
2018-09-15T20:37:53.421Z,19.00
2018-09-15T20:40:22.788Z,19.00
2018-09-15T20:42:52.034Z,19.00
2018-09-15T20:45:21.484Z,18.80
2018-09-15T20:47:53.937Z,18.80
2018-09-15T20:50:23.190Z,18.70
2018-09-15T20:52:52.504Z,18.70
2018-09-15T20:55:21.773Z,18.60
2018-09-15T20:57:51.012Z,18.50
2018-09-15T21:00:20.576Z,18.30
2018-09-15T21:02:49.807Z,18.30
2018-09-15T21:05:19.074Z,18.20
2018-09-15T21:07:48.338Z,18.30
2018-09-15T21:10:18.568Z,18.30
2018-09-15T21:12:47.859Z,18.30
2018-09-15T21:15:17.242Z,18.10
2018-09-15T21:17:46.550Z,17.80
2018-09-15T21:20:15.894Z,17.50
2018-09-15T21:22:45.168Z,17.50
2018-09-15T21:25:14.415Z,17.50
2018-09-15T21:27:51.206Z,17.50
2018-09-15T21:30:20.450Z,17.40
2018-09-15T21:32:49.792Z,17.20
2018-09-15T21:35:18.980Z,16.80
2018-09-15T21:37:48.290Z,16.80
2018-09-15T21:40:17.533Z,16.50
2018-09-15T21:42:46.767Z,16.50
2018-09-15T21:45:16.051Z,16.50
2018-09-15T21:47:45.284Z,16.60
2018-09-15T21:50:14.563Z,16.70
2018-09-15T21:52:43.902Z,16.90
2018-09-15T21:55:13.178Z,17.10
2018-09-15T21:57:42.554Z,17.20
2018-09-15T22:00:12.933Z,17.20
2018-09-15T22:02:42.306Z,17.20
2018-09-15T22:05:11.528Z,17.20
2018-09-15T22:07:40.818Z,17.40
2018-09-15T22:10:10.173Z,17.40
2018-09-15T22:12:39.435Z,17.50
2018-09-15T22:15:14.060Z,17.60
2018-09-15T22:17:43.382Z,17.50
2018-09-15T22:20:12.658Z,17.50
2018-09-15T22:22:42.026Z,17.40
2018-09-15T22:25:11.315Z,17.50
2018-09-15T22:27:40.544Z,17.40
2018-09-15T22:30:10.095Z,17.30
2018-09-15T22:32:39.351Z,17.30
2018-09-15T22:35:08.602Z,17.20
2018-09-15T22:37:37.932Z,17.20
2018-09-15T22:40:07.131Z,17.20
2018-09-15T22:42:41.390Z,17.20
2018-09-15T22:45:10.668Z,17.20
2018-09-15T22:47:40.220Z,17.00
2018-09-15T22:50:09.478Z,17.00
2018-09-15T22:52:38.775Z,17.10
2018-09-15T22:55:08.236Z,17.10
2018-09-15T22:57:38.594Z,17.00
2018-09-15T23:00:08.199Z,16.80
2018-09-15T23:02:37.532Z,16.80
2018-09-15T23:05:07.048Z,16.80
2018-09-15T23:07:36.426Z,16.80
2018-09-15T23:10:05.920Z,16.80
2018-09-15T23:12:35.248Z,16.80
2018-09-15T23:15:04.633Z,16.90
2018-09-15T23:17:33.945Z,17.00
2018-09-15T23:20:03.280Z,17.00
2018-09-15T23:22:32.565Z,16.90
2018-09-15T23:25:01.888Z,16.80
2018-09-15T23:27:31.503Z,16.80
2018-09-15T23:30:00.796Z,16.80
2018-09-15T23:32:30.043Z,16.80
2018-09-15T23:34:59.346Z,16.90
2018-09-15T23:37:28.607Z,16.90
2018-09-15T23:39:57.854Z,16.90
2018-09-15T23:42:27.143Z,16.90
2018-09-15T23:44:56.391Z,16.90
2018-09-15T23:47:25.671Z,16.90
2018-09-15T23:49:56.122Z,16.80
2018-09-15T23:52:25.757Z,16.80
2018-09-15T23:54:55.049Z,16.70
2018-09-15T23:57:24.299Z,16.70
2018-09-15T23:59:53.612Z,16.80
